Virtual Washington ARTCC

Weather

KBWI 010354Z 07010KT 6SM BR BKN009 16/15 A3005 RMK AO2 SLP176 T01610150
KDCA 010352Z 05010KT 10SM SCT250 20/18 A3003 RMK AO2 SLP169 T02000178
KIAD 010352Z 15005KT 10SM SCT250 23/17 A3001 RMK AO2 SLP158 T02280167
KORF 010351Z 20015G21KT 10SM CLR 24/20 A3010 RMK AO2 SLP191 T02440200
KRDU 010351Z 19011G18KT 10SM SCT065 BKN250 22/19 A3010 RMK AO2 SLP189 T02170189

Events



No Events on the scope. Click to learn more about the ZDC events department. Details


ZDC Activity

No controllers online.

News



The information contained on all pages of this website is to be used for flight simulation purposes only on the VATSIM network. It is not intended nor should it be used for real world navigation.This site is not affiliated with the FAA, the actual Washington Center or any governing aviation body. All content contained herein is approved only for use on the VATSIM network. ©2016 Virtual Washington ARTCC -- Source Code © 2016-2017 W. Guisbond and R. Rump.